createdAt,value
2023-09-17T00:01:28.944Z,100771.75
2023-09-17T00:04:31.686Z,100773.91
2023-09-17T00:07:34.095Z,100775.50
2023-09-17T00:10:38.471Z,100776.22
2023-09-17T00:13:41.064Z,100766.84
2023-09-17T00:16:43.602Z,100778.38
2023-09-17T00:19:46.018Z,100755.53
2023-09-17T00:22:48.402Z,100746.91
2023-09-17T00:25:50.824Z,100754.31
2023-09-17T00:28:53.586Z,100778.56
2023-09-17T00:31:56.006Z,100759.34
2023-09-17T00:34:58.584Z,100771.59
2023-09-17T00:38:00.993Z,100749.25
2023-09-17T00:41:03.356Z,100755.72
2023-09-17T00:44:05.838Z,100768.81
2023-09-17T00:47:08.835Z,100745.78
2023-09-17T00:50:11.810Z,100720.78
2023-09-17T00:53:15.243Z,100758.28
2023-09-17T00:56:17.822Z,100742.81
2023-09-17T00:59:20.580Z,100739.91
2023-09-17T01:02:26.207Z,100752.84
2023-09-17T01:05:38.088Z,100735.78
2023-09-17T01:08:42.095Z,100720.06
2023-09-17T01:11:44.775Z,100726.81
2023-09-17T01:14:48.252Z,100752.44
2023-09-17T01:17:51.805Z,100749.38
2023-09-17T01:21:03.841Z,100746.44
2023-09-17T01:24:09.381Z,100766.47
2023-09-17T01:27:14.155Z,100747.38
2023-09-17T01:30:22.720Z,100741.94
2023-09-17T01:33:25.371Z,100770.38
2023-09-17T01:36:34.358Z,100745.28
2023-09-17T01:39:42.280Z,100742.56
2023-09-17T01:42:49.925Z,100766.34
2023-09-17T01:45:53.581Z,100737.97
2023-09-17T01:48:56.849Z,100754.94
2023-09-17T01:51:59.401Z,100730.22
2023-09-17T01:55:03.657Z,100753.16
2023-09-17T01:58:06.045Z,100747.19
2023-09-17T02:01:08.482Z,100743.41
2023-09-17T02:04:11.082Z,100728.81
2023-09-17T02:07:13.815Z,100723.38
2023-09-17T02:10:16.568Z,100742.56
2023-09-17T02:13:19.012Z,100746.31
2023-09-17T02:16:22.350Z,100744.91
2023-09-17T02:19:26.518Z,100717.44
2023-09-17T02:22:29.146Z,100734.22
2023-09-17T02:25:31.617Z,100718.25
2023-09-17T02:28:34.338Z,100724.34
2023-09-17T02:31:36.832Z,100733.13
2023-09-17T02:34:39.547Z,100722.16
2023-09-17T02:37:42.078Z,100732.47
2023-09-17T02:40:44.575Z,100735.28
2023-09-17T02:43:47.045Z,100743.25
2023-09-17T02:46:49.493Z,100723.16
2023-09-17T02:49:52.122Z,100743.94
2023-09-17T02:52:54.489Z,100727.94
2023-09-17T02:55:57.941Z,100728.88
2023-09-17T02:59:00.326Z,100732.69
2023-09-17T03:02:02.909Z,100732.44
2023-09-17T03:05:05.843Z,100745.13
2023-09-17T03:08:10.557Z,100714.56
2023-09-17T03:11:18.324Z,100734.94
2023-09-17T03:14:22.028Z,100728.81
2023-09-17T03:17:24.663Z,100734.25
2023-09-17T03:20:28.361Z,100751.56
2023-09-17T03:23:31.468Z,100727.13
2023-09-17T03:26:34.040Z,100731.44
2023-09-17T03:29:36.620Z,100693.25
2023-09-17T03:32:46.267Z,100725.59
2023-09-17T03:35:56.815Z,100738.53
2023-09-17T03:39:01.064Z,100727.75
2023-09-17T03:42:04.633Z,100742.25
2023-09-17T03:45:10.835Z,100724.94
2023-09-17T03:48:14.087Z,100748.72
2023-09-17T03:51:16.574Z,100732.31
2023-09-17T03:54:19.789Z,100740.94
2023-09-17T03:57:23.742Z,100724.09
2023-09-17T04:00:26.472Z,100746.66
2023-09-17T04:03:28.977Z,100739.31
2023-09-17T04:06:31.442Z,100726.63
2023-09-17T04:09:33.893Z,100732.75
2023-09-17T04:12:38.701Z,100726.63
2023-09-17T04:15:41.070Z,100738.31
2023-09-17T04:18:43.578Z,100728.97
2023-09-17T04:21:45.953Z,100747.38
2023-09-17T04:24:49.800Z,100755.06
2023-09-17T04:27:53.233Z,100728.47
2023-09-17T04:30:57.744Z,100762.00
2023-09-17T04:34:00.326Z,100759.06
2023-09-17T04:37:03.307Z,100756.56
2023-09-17T04:40:15.671Z,100765.47
2023-09-17T04:43:20.799Z,100754.88
2023-09-17T04:46:23.740Z,100779.69
2023-09-17T04:49:28.054Z,100770.63
2023-09-17T04:52:30.723Z,100781.00
2023-09-17T04:55:33.774Z,100789.25
2023-09-17T04:58:36.188Z,100773.72
2023-09-17T05:01:41.285Z,100790.09
2023-09-17T05:04:46.206Z,100797.94
2023-09-17T05:07:49.956Z,100803.06
2023-09-17T05:10:53.961Z,100807.25
2023-09-17T05:13:59.125Z,100796.03
2023-09-17T05:17:01.602Z,100790.66
2023-09-17T05:20:07.769Z,100799.00
2023-09-17T05:23:13.343Z,100799.09
2023-09-17T05:26:16.910Z,100808.63
2023-09-17T05:29:19.448Z,100813.50
2023-09-17T05:32:22.672Z,100822.91
2023-09-17T05:35:25.172Z,100829.41
2023-09-17T05:38:28.627Z,100806.44
2023-09-17T05:41:31.062Z,100839.56
2023-09-17T05:44:33.841Z,100841.84
2023-09-17T05:47:36.548Z,100842.53
2023-09-17T05:50:39.159Z,100826.34
2023-09-17T05:53:41.925Z,100826.69
2023-09-17T05:56:44.352Z,100836.38
2023-09-17T05:59:46.961Z,100835.84
2023-09-17T06:02:49.457Z,100827.94
2023-09-17T06:05:56.768Z,100836.47
2023-09-17T06:08:59.131Z,100857.31
2023-09-17T06:12:03.554Z,100855.22
2023-09-17T06:15:06.707Z,100842.16
2023-09-17T06:18:09.358Z,100855.31
2023-09-17T06:21:11.804Z,100851.50
2023-09-17T06:24:14.166Z,100846.22
2023-09-17T06:27:16.648Z,100852.63
2023-09-17T06:30:19.204Z,100865.34
2023-09-17T06:33:21.641Z,100869.88
2023-09-17T06:36:24.307Z,100824.16
2023-09-17T06:39:26.654Z,100865.63
2023-09-17T06:42:30.776Z,100865.38
2023-09-17T06:45:33.192Z,100875.84
2023-09-17T06:48:35.745Z,100871.25
2023-09-17T06:51:38.423Z,100866.09
2023-09-17T06:54:40.904Z,100866.88
2023-09-17T06:57:43.262Z,100887.72
2023-09-17T07:00:47.029Z,100872.75
2023-09-17T07:03:49.635Z,100858.03
2023-09-17T07:06:52.383Z,100880.06
2023-09-17T07:09:54.797Z,100880.41
2023-09-17T07:12:57.341Z,100881.63
2023-09-17T07:15:59.821Z,100860.16
2023-09-17T07:19:02.345Z,100857.03
2023-09-17T07:22:04.884Z,100885.38
2023-09-17T07:25:07.714Z,100884.00
2023-09-17T07:28:10.164Z,100885.00
2023-09-17T07:31:13.240Z,100854.28
2023-09-17T07:34:15.934Z,100873.19
2023-09-17T07:37:20.157Z,100881.72
2023-09-17T07:40:22.718Z,100895.19
2023-09-17T07:43:25.140Z,100895.75
2023-09-17T07:46:27.570Z,100898.25
2023-09-17T07:49:30.354Z,100899.63
2023-09-17T07:52:33.483Z,100888.28
2023-09-17T07:55:36.052Z,100893.28
2023-09-17T07:58:38.535Z,100898.66
2023-09-17T08:01:41.099Z,100892.81
2023-09-17T08:04:43.590Z,100899.81
2023-09-17T08:07:46.945Z,100911.53
2023-09-17T08:10:50.902Z,100912.84
2023-09-17T08:13:53.718Z,100903.38
2023-09-17T08:16:56.835Z,100904.63
2023-09-17T08:19:59.998Z,100894.69
2023-09-17T08:23:02.458Z,100912.97
2023-09-17T08:26:06.298Z,100924.53
2023-09-17T08:29:11.196Z,100915.66
2023-09-17T08:32:14.496Z,100908.03
2023-09-17T08:35:16.869Z,100913.28
2023-09-17T08:38:20.238Z,100906.22
2023-09-17T08:41:25.966Z,100898.50
2023-09-17T08:44:33.086Z,100914.59
2023-09-17T08:47:35.784Z,100899.00
2023-09-17T08:50:39.029Z,100910.69
2023-09-17T08:53:51.404Z,100922.63
2023-09-17T08:56:58.049Z,100919.78
2023-09-17T09:00:11.585Z,100901.34
2023-09-17T09:03:16.980Z,100913.13
2023-09-17T09:06:22.997Z,100906.94
2023-09-17T09:09:26.334Z,100914.38
2023-09-17T09:12:30.567Z,100890.28
2023-09-17T09:15:33.889Z,100907.94
2023-09-17T09:18:36.435Z,100924.22
2023-09-17T09:21:38.790Z,100925.34
2023-09-17T09:24:50.902Z,100924.28
2023-09-17T09:27:53.434Z,100912.88
2023-09-17T09:30:55.994Z,100900.34
2023-09-17T09:34:00.859Z,100921.19
2023-09-17T09:37:10.830Z,100903.50
2023-09-17T09:40:16.373Z,100920.31
2023-09-17T09:43:32.224Z,100927.22
2023-09-17T09:46:35.192Z,100917.88
2023-09-17T09:49:44.698Z,100928.72
2023-09-17T09:52:49.346Z,100911.00
2023-09-17T09:55:52.623Z,100913.38
2023-09-17T09:58:56.738Z,100925.53
2023-09-17T10:02:00.049Z,100907.66
2023-09-17T10:05:05.850Z,100920.75
2023-09-17T10:08:20.998Z,100916.00
2023-09-17T10:11:23.797Z,100901.50
2023-09-17T10:14:27.903Z,100912.13
2023-09-17T10:17:33.662Z,100902.22
2023-09-17T10:20:36.687Z,100911.63
2023-09-17T10:23:39.364Z,100898.34
2023-09-17T10:26:44.072Z,100897.94
2023-09-17T10:29:50.331Z,100897.19
2023-09-17T10:32:53.394Z,100896.03
2023-09-17T10:35:58.233Z,100892.78
2023-09-17T10:39:01.091Z,100892.66
2023-09-17T10:42:06.308Z,100878.59
2023-09-17T10:45:11.713Z,100898.09
2023-09-17T10:48:15.675Z,100896.56
2023-09-17T10:51:19.050Z,100897.00
2023-09-17T10:54:21.575Z,100881.81
2023-09-17T10:57:35.495Z,100899.22
2023-09-17T11:00:40.895Z,100892.56
2023-09-17T11:03:50.474Z,100871.94
2023-09-17T11:06:54.075Z,100866.41
2023-09-17T11:09:57.099Z,100879.91
2023-09-17T11:12:59.986Z,100883.97
2023-09-17T11:16:02.483Z,100854.47
2023-09-17T11:19:12.396Z,100881.84
2023-09-17T11:22:14.878Z,100856.16
2023-09-17T11:25:34.476Z,100861.06
2023-09-17T11:28:39.923Z,100862.13
2023-09-17T11:31:51.671Z,100866.78
2023-09-17T11:34:55.666Z,100848.09
2023-09-17T11:37:58.463Z,100844.50
2023-09-17T11:41:12.205Z,100858.25
2023-09-17T11:44:14.992Z,100847.38
2023-09-17T11:47:19.144Z,100848.84
2023-09-17T11:50:22.279Z,100836.66
2023-09-17T11:53:24.849Z,100847.00
2023-09-17T11:56:46.787Z,100823.88
2023-09-17T11:59:49.293Z,100830.03
2023-09-17T12:02:52.310Z,100832.84
2023-09-17T12:05:55.023Z,100831.81
2023-09-17T12:09:39.467Z,100814.16
2023-09-17T12:13:00.691Z,100810.63
2023-09-17T12:16:03.307Z,100816.34
2023-09-17T12:19:17.840Z,100820.56
2023-09-17T12:22:21.533Z,100803.34
2023-09-17T12:25:25.140Z,100802.19
2023-09-17T12:28:29.170Z,100808.81
2023-09-17T12:31:31.937Z,100794.56
2023-09-17T12:34:38.361Z,100794.28
2023-09-17T12:37:40.773Z,100810.09
2023-09-17T12:40:43.155Z,100801.97
2023-09-17T12:43:45.665Z,100796.38
2023-09-17T12:46:48.330Z,100785.09
2023-09-17T12:49:54.341Z,100793.44
2023-09-17T12:52:57.096Z,100800.75
2023-09-17T12:56:01.413Z,100784.78
2023-09-17T12:59:04.976Z,100782.66
2023-09-17T13:02:08.688Z,100786.78
2023-09-17T13:05:21.315Z,100772.53
2023-09-17T13:08:26.342Z,100771.91
2023-09-17T13:11:29.894Z,100770.84
2023-09-17T13:14:32.734Z,100770.75
2023-09-17T13:17:35.285Z,100773.91
2023-09-17T13:20:38.138Z,100753.63
2023-09-17T13:23:41.126Z,100750.53
2023-09-17T13:26:44.255Z,100763.53
2023-09-17T13:29:51.732Z,100759.50
2023-09-17T13:32:57.417Z,100757.50
2023-09-17T13:36:03.061Z,100764.66
2023-09-17T13:39:05.607Z,100752.91
2023-09-17T13:42:08.612Z,100743.59
2023-09-17T13:45:11.212Z,100753.03
2023-09-17T13:48:13.854Z,100735.41
2023-09-17T13:51:16.258Z,100730.72
2023-09-17T13:54:18.606Z,100729.84
2023-09-17T13:57:21.485Z,100729.59
2023-09-17T14:00:23.940Z,100738.25
2023-09-17T14:03:26.360Z,100733.03
2023-09-17T14:06:28.778Z,100734.25
2023-09-17T14:09:31.272Z,100725.31
2023-09-17T14:12:34.161Z,100731.00
2023-09-17T14:15:38.323Z,100732.09
2023-09-17T14:18:40.829Z,100720.94
2023-09-17T14:21:43.211Z,100736.56
2023-09-17T14:24:45.718Z,100722.38
2023-09-17T14:27:48.380Z,100728.09
2023-09-17T14:30:50.887Z,100720.66
2023-09-17T14:33:53.294Z,100734.13
2023-09-17T14:36:55.656Z,100737.06
2023-09-17T14:39:58.485Z,100729.41
2023-09-17T14:43:01.011Z,100718.56
2023-09-17T14:46:03.432Z,100726.13
2023-09-17T14:49:06.290Z,100716.38
2023-09-17T14:52:08.733Z,100730.97
2023-09-17T14:55:11.419Z,100737.47
2023-09-17T14:58:14.774Z,100721.47
2023-09-17T15:01:33.499Z,100739.06
2023-09-17T15:04:39.809Z,100736.25
2023-09-17T15:07:43.648Z,100723.78
2023-09-17T15:10:46.128Z,100731.81
2023-09-17T15:13:48.543Z,100733.69
2023-09-17T15:16:51.003Z,100721.06
2023-09-17T15:19:53.566Z,100740.25
2023-09-17T15:22:56.135Z,100718.09
2023-09-17T15:25:58.612Z,100721.59
2023-09-17T15:29:01.269Z,100719.13
2023-09-17T15:32:04.507Z,100737.78
2023-09-17T15:35:12.244Z,100730.97
2023-09-17T15:38:16.268Z,100719.13
2023-09-17T15:41:19.017Z,100726.41
2023-09-17T15:44:23.996Z,100704.66
2023-09-17T15:47:26.575Z,100703.06
2023-09-17T15:50:29.249Z,100724.88
2023-09-17T15:53:33.101Z,100723.50
2023-09-17T15:56:35.506Z,100716.50
2023-09-17T15:59:39.552Z,100704.38
2023-09-17T16:02:42.367Z,100716.22
2023-09-17T16:05:45.496Z,100710.41
2023-09-17T16:08:47.873Z,100725.44
2023-09-17T16:11:50.254Z,100717.44
2023-09-17T16:14:52.909Z,100713.19
2023-09-17T16:17:55.360Z,100709.31
2023-09-17T16:20:58.001Z,100735.59
2023-09-17T16:24:00.481Z,100737.22
2023-09-17T16:27:05.594Z,100736.78
2023-09-17T16:30:09.377Z,100710.88
2023-09-17T16:33:11.785Z,100737.69
2023-09-17T16:36:14.182Z,100728.13
2023-09-17T16:39:16.688Z,100715.25
2023-09-17T16:42:19.073Z,100728.22
2023-09-17T16:45:21.687Z,100708.13
2023-09-17T16:48:25.809Z,100727.16
2023-09-17T16:51:28.166Z,100725.75
2023-09-17T16:54:30.592Z,100725.91
2023-09-17T16:57:33.040Z,100710.72
2023-09-17T17:00:35.470Z,100710.44
2023-09-17T17:03:38.025Z,100712.56
2023-09-17T17:06:40.505Z,100738.47
2023-09-17T17:09:42.900Z,100714.00
2023-09-17T17:12:45.354Z,100707.31
2023-09-17T17:15:48.021Z,100711.75
2023-09-17T17:18:51.332Z,100720.22
2023-09-17T17:21:54.019Z,100709.75
2023-09-17T17:24:56.552Z,100744.06
2023-09-17T17:27:58.920Z,100744.53
2023-09-17T17:31:01.790Z,100729.31
2023-09-17T17:34:04.236Z,100732.88
2023-09-17T17:37:06.793Z,100754.31
2023-09-17T17:40:09.669Z,100756.25
2023-09-17T17:43:12.272Z,100758.47
2023-09-17T17:46:15.214Z,100759.03
2023-09-17T17:49:17.642Z,100757.50
2023-09-17T17:52:21.821Z,100771.09
2023-09-17T17:55:24.258Z,100753.63
2023-09-17T17:58:26.845Z,100758.94
2023-09-17T18:01:29.633Z,100773.81
2023-09-17T18:04:32.315Z,100744.16
2023-09-17T18:07:35.115Z,100781.94
2023-09-17T18:10:39.037Z,100786.66
2023-09-17T18:13:41.427Z,100790.34
2023-09-17T18:16:43.786Z,100771.28
2023-09-17T18:19:46.769Z,100790.63
2023-09-17T18:22:49.492Z,100776.16
2023-09-17T18:25:52.192Z,100794.03
2023-09-17T18:28:58.039Z,100773.31
2023-09-17T18:32:01.437Z,100794.72
2023-09-17T18:35:04.494Z,100777.06
2023-09-17T18:38:07.238Z,100771.75
2023-09-17T18:41:09.723Z,100770.78
2023-09-17T18:44:12.391Z,100792.78
2023-09-17T18:47:15.158Z,100777.16
2023-09-17T18:50:17.967Z,100773.13
2023-09-17T18:53:20.791Z,100770.13
2023-09-17T18:56:23.971Z,100780.72
2023-09-17T18:59:26.708Z,100782.03
2023-09-17T19:02:29.371Z,100789.00
2023-09-17T19:05:32.714Z,100798.38
2023-09-17T19:08:36.821Z,100786.19
2023-09-17T19:11:40.712Z,100787.59
2023-09-17T19:14:47.584Z,100772.03
2023-09-17T19:17:50.421Z,100790.03
2023-09-17T19:21:06.767Z,100767.47
2023-09-17T19:24:09.702Z,100788.34
2023-09-17T19:27:14.539Z,100773.31
2023-09-17T19:30:17.337Z,100782.22
2023-09-17T19:33:20.017Z,100769.75
2023-09-17T19:36:24.227Z,100768.47
2023-09-17T19:39:26.975Z,100793.03
2023-09-17T19:42:30.123Z,100790.66
2023-09-17T19:45:32.850Z,100792.69
2023-09-17T19:48:35.610Z,100793.88
2023-09-17T19:51:38.688Z,100792.06
2023-09-17T19:54:45.299Z,100789.34
2023-09-17T19:57:49.379Z,100790.31
2023-09-17T20:00:52.093Z,100807.44
2023-09-17T20:03:56.561Z,100805.56
2023-09-17T20:07:01.112Z,100802.53
2023-09-17T20:10:05.452Z,100787.41
2023-09-17T20:13:07.976Z,100801.78
2023-09-17T20:16:10.329Z,100782.81
2023-09-17T20:19:13.088Z,100787.59
2023-09-17T20:22:15.462Z,100800.53
2023-09-17T20:25:22.414Z,100805.53
2023-09-17T20:28:24.790Z,100804.88
2023-09-17T20:31:27.221Z,100777.25
2023-09-17T20:34:29.763Z,100813.66
2023-09-17T20:37:32.172Z,100808.97
2023-09-17T20:40:34.572Z,100790.19
2023-09-17T20:43:37.359Z,100806.84
2023-09-17T20:46:41.299Z,100789.16
2023-09-17T20:49:43.634Z,100807.41
2023-09-17T20:52:46.088Z,100773.91
2023-09-17T20:55:48.773Z,100779.91
2023-09-17T20:58:51.497Z,100800.94
2023-09-17T21:01:54.859Z,100791.19
2023-09-17T21:04:59.904Z,100806.22
2023-09-17T21:08:02.332Z,100783.84
2023-09-17T21:11:04.784Z,100797.28
2023-09-17T21:14:07.221Z,100809.41
2023-09-17T21:17:11.343Z,100785.97
2023-09-17T21:20:20.288Z,100786.81
2023-09-17T21:23:23.330Z,100786.50
2023-09-17T21:26:26.142Z,100801.63
2023-09-17T21:29:28.648Z,100805.75
2023-09-17T21:32:31.605Z,100776.84
2023-09-17T21:35:34.236Z,100795.44
2023-09-17T21:38:36.760Z,100772.09
2023-09-17T21:41:39.148Z,100802.41
2023-09-17T21:44:41.574Z,100794.63
2023-09-17T21:47:44.299Z,100785.13
2023-09-17T21:50:46.815Z,100786.22
2023-09-17T21:53:50.367Z,100788.94
2023-09-17T21:56:52.761Z,100764.75
2023-09-17T21:59:55.200Z,100786.31
2023-09-17T22:03:00.107Z,100782.63
2023-09-17T22:06:03.404Z,100779.59
2023-09-17T22:09:08.483Z,100757.34
2023-09-17T22:12:12.194Z,100779.78
2023-09-17T22:15:14.679Z,100784.22
2023-09-17T22:18:17.244Z,100785.28
2023-09-17T22:21:19.666Z,100765.69
2023-09-17T22:24:22.579Z,100770.47
2023-09-17T22:27:25.332Z,100778.09
2023-09-17T22:30:27.723Z,100768.63
2023-09-17T22:33:31.210Z,100787.69
2023-09-17T22:36:33.589Z,100794.63
2023-09-17T22:39:39.758Z,100778.19
2023-09-17T22:42:42.110Z,100789.03
2023-09-17T22:45:44.578Z,100787.91
2023-09-17T22:48:51.189Z,100783.28
2023-09-17T22:51:54.101Z,100785.78
2023-09-17T22:54:56.762Z,100789.59
2023-09-17T22:57:59.161Z,100763.38
2023-09-17T23:01:01.587Z,100774.94
2023-09-17T23:04:04.138Z,100787.47
2023-09-17T23:07:06.553Z,100789.59
2023-09-17T23:10:09.371Z,100778.81
2023-09-17T23:13:11.950Z,100766.09
2023-09-17T23:16:16.020Z,100795.69
2023-09-17T23:19:19.110Z,100800.16
2023-09-17T23:22:21.829Z,100778.28
2023-09-17T23:25:24.419Z,100794.50
2023-09-17T23:28:33.019Z,100800.81
2023-09-17T23:31:38.877Z,100799.22
2023-09-17T23:34:41.438Z,100780.06
2023-09-17T23:37:43.827Z,100772.31
2023-09-17T23:40:46.240Z,100779.66
2023-09-17T23:43:48.702Z,100791.56
2023-09-17T23:46:51.204Z,100796.19
2023-09-17T23:49:54.457Z,100766.88
2023-09-17T23:52:56.870Z,100774.19
2023-09-17T23:55:59.729Z,100792.63
2023-09-17T23:59:02.148Z,100788.84
